Buoy 41676

sailwx.info

Track history (hours):
 
Tides and Currents Weather Stations Pressure Air Temp Water Temp Dewpoint Dewpoint Depression Visibility Wind Speed Wind Dir Waves Ship Positions

Drifting buoy 41676

Last reported at 2016-Feb-08 15:52 UTC. Time now 2016-Sep-30 18:36 UTC.
Position N 23°33' W 075°47'.
Warning: this ship's position is months out of date.

Water temperature 25.3 ° C

Date/timePositionNaut miles runAvg speedWind from/ knotsBaromVisibWave heightAir tempDewpointWater temp
2016-Feb-08 15:52N 23°33' W 075°47'0 1.1 25.3
2016-Feb-08 15:49N 23°33' W 075°47'0 0.1 25.3
2016-Feb-08 14:54N 23°33' W 075°47'0 0.2 25.3
2016-Feb-08 14:04N 23°33' W 075°47'0 0.1 25.3
2016-Feb-08 12:20N 23°33' W 075°47'0 5.0 25.4
2016-Feb-08 12:17N 23°33' W 075°47'0 2.0 25.4
2016-Feb-08 12:07N 23°33' W 075°47'0 0.9 25.4
2016-Feb-08 11:46N 23°33' W 075°47'0 0.5 25.4
2016-Feb-08 10:43N 23°33' W 075°47'0 1.2 25.4
2016-Feb-08 10:34N 23°33' W 075°47'0 0.1 25.4
2016-Feb-08 09:07N 23°33' W 075°47'0 0.0 25.4
2016-Feb-08 09:04N 23°33' W 075°47'0 1.6 25.4
2016-Feb-08 09:01N 23°33' W 075°47'0 0.2 25.4
2016-Feb-08 07:23N 23°33' W 075°48'0 0.1 25.4
2016-Feb-08 03:18N 23°33' W 075°47'0 0.0 25.4
2016-Feb-08 02:33N 23°33' W 075°47'0 1.1 25.4
2016-Feb-08 02:27N 23°33' W 075°47'0 0.0 25.5
2016-Feb-08 01:45N 23°33' W 075°47'0 0.1 25.5
2016-Feb-08 00:58N 23°33' W 075°47'0 0.2 25.6
2016-Feb-07 23:48N 23°33' W 075°48'0 0.0 25.6
2016-Feb-07 22:10N 23°33' W 075°48'0 0.2 25.6
2016-Feb-07 20:34N 23°33' W 075°47'0 0.2 25.7
2016-Feb-07 18:55N 23°33' W 075°48'1 0.3 25.7
2016-Feb-07 16:09N 23°33' W 075°47'1 0.9 25.7
2016-Feb-07 15:21N 23°33' W 075°47'0 0.0 25.8
2016-Feb-07 14:33N 23°33' W 075°47'0 0.6 25.8
2016-Feb-07 14:27N 23°33' W 075°47'0 0.1 25.8
2016-Feb-07 12:35N 23°33' W 075°47'0 0.0 25.8
2016-Feb-07 12:30N 23°33' W 075°47'0 0.0 25.8
2016-Feb-07 12:11N 23°33' W 075°47'0 0.0 25.9
2016-Feb-07 11:02N 23°33' W 075°47'0 0.0 25.9
2016-Feb-07 10:52N 23°33' W 075°47'0 0.2 25.9
2016-Feb-07 10:31N 23°33' W 075°47'0 0.2 25.9
2016-Feb-07 09:15N 23°34' W 075°47'0 1.1 26.0
2016-Feb-07 09:12N 23°34' W 075°47'0 0.2 26.0
2016-Feb-07 07:36N 23°33' W 075°47'0 0.0 26.0
2016-Feb-07 02:55N 23°33' W 075°47'0 1.0 26.1
2016-Feb-07 02:50N 23°33' W 075°47'0 0.2 26.1
2016-Feb-07 02:07N 23°33' W 075°47'0 0.1 26.1
2016-Feb-07 01:14N 23°33' W 075°47'0 4.8 26.1
2016-Feb-07 01:08N 23°33' W 075°47'0 0.0 26.1
2016-Feb-07 00:01N 23°33' W 075°47'0 0.2 26.1
2016-Feb-06 22:24N 23°33' W 075°48'0 1.2
2016-Feb-06 22:20N 23°33' W 075°48'0 0.4 26.2
2016-Feb-06 22:08N 23°33' W 075°48'0 8.4 26.2
2016-Feb-06 22:05N 23°33' W 075°47'0 0.0 26.2
2016-Feb-06 20:42N 23°33' W 075°47'0 0.2 26.2
2016-Feb-06 19:06N 23°33' W 075°48'0 0.1 26.1
2016-Feb-06 15:40N 23°33' W 075°47'0 0.3 25.6
2016-Feb-06 14:48N 23°33' W 075°47'0 0.0
2016-Feb-06 13:57N 23°33' W 075°47'0 0.3 25.6
2016-Feb-06 12:34N 23°33' W 075°48'0 0.4 25.6
2016-Feb-06 11:31N 23°33' W 075°47'0 1.0 25.6
2016-Feb-06 11:05N 23°33' W 075°47'0 2.4 25.6
2016-Feb-06 10:58N 23°33' W 075°47'0 0.0 25.6
2016-Feb-06 10:56N 23°33' W 075°47'1 0.4 25.6
2016-Feb-06 09:26N 23°33' W 075°48'0 9.1 25.6
2016-Feb-06 09:23N 23°33' W 075°47'0 0.1 25.6
2016-Feb-06 07:44N 23°33' W 075°48'0 0.1 25.6
2016-Feb-06 03:15N 23°33' W 075°47'0 3.0 25.7
2016-Feb-06 03:08N 23°33' W 075°48'0 0.0 25.7
2016-Feb-06 02:27N 23°33' W 075°48'0 0.3 25.7
2016-Feb-06 01:35N 23°33' W 075°47'0 1.6 25.7
2016-Feb-06 01:29N 23°33' W 075°47'1 1.1 25.7
2016-Feb-06 00:12N 23°34' W 075°46'0 0.0 25.7
2016-Feb-05 22:33N 23°34' W 075°46'127.4 25.8
2016-Feb-05 22:30N 23°33' W 075°47'0 0.0 25.8
2016-Feb-05 20:55N 23°33' W 075°47'0 0.0 25.8
2016-Feb-05 20:51N 23°33' W 075°47'0 0.2 25.8
2016-Feb-05 19:15N 23°34' W 075°47'0 0.1 25.8
2016-Feb-05 16:01N 23°33' W 075°47'0 0.2 25.6
2016-Feb-05 15:13N 23°33' W 075°47'0 0.0 25.6
2016-Feb-05 09:35N 23°33' W 075°47'0 0.0 25.5
2016-Feb-05 09:29N 23°33' W 075°47'0 0.0 25.5
2016-Feb-05 08:00N 23°33' W 075°47'0 3.5 25.5
2016-Feb-05 07:54N 23°33' W 075°48'0 0.0 25.5
2016-Feb-05 03:31N 23°33' W 075°47'0 0.2 25.5
2016-Feb-05 02:48N 23°33' W 075°47'0 0.0 25.5
2016-Feb-05 01:57N 23°33' W 075°47'0 0.0 25.5
2016-Feb-05 01:51N 23°33' W 075°47'0 0.4 25.5
2016-Feb-05 01:04N 23°33' W 075°48'0 0.2 25.5
2016-Feb-04 22:56N 23°33' W 075°47'0 1.0 25.6
2016-Feb-04 22:46N 23°33' W 075°47'1 0.4 25.6
2016-Feb-04 21:20N 23°33' W 075°48'0 0.7 25.6
2016-Feb-04 21:05N 23°33' W 075°47'0 0.0 25.6
2016-Feb-04 21:04N 23°33' W 075°47'0 0.0 25.6
2016-Feb-04 19:28N 23°33' W 075°47'0 0.0 25.6
2016-Feb-04 16:18N 23°33' W 075°47'0 0.0 25.4
2016-Feb-04 15:36N 23°33' W 075°47'0 1.9 25.4
2016-Feb-04 15:32N 23°33' W 075°47'0 0.6 25.4
2016-Feb-04 14:42N 23°33' W 075°48'0 0.2 25.4
2016-Feb-04 13:48N 23°33' W 075°47'0 0.0 25.3
2016-Feb-04 12:31N 23°33' W 075°47'0 0.0 25.3
2016-Feb-04 11:49N 23°33' W 075°47'0 0.0
2016-Feb-04 08:06N 23°33' W 075°47'0 0.1
2016-Feb-04 03:53N 23°33' W 075°48'0 0.1 25.6
2016-Feb-03 22:59N 23°33' W 075°47'0 1.2
2016-Feb-03 22:56N 23°33' W 075°47'0 0.0 25.6
2016-Feb-03 18:00N 23°33' W 075°47'0 1.3 25.6
2016-Feb-03 17:54N 23°33' W 075°47'0 0.0 25.6
2016-Feb-03 15:54N 23°33' W 075°47'0 0.2 25.6
2016-Feb-03 15:03N 23°33' W 075°47'0 0.1 25.5
2016-Feb-03 12:11N 23°33' W 075°47'0 0.4 25.5
2016-Feb-03 11:37N 23°33' W 075°47'0 2.0 25.5
2016-Feb-03 11:32N 23°33' W 075°47'0 0.8 25.5
2016-Feb-03 11:26N 23°33' W 075°47'0 0.1 25.5
2016-Feb-03 09:56N 23°33' W 075°47'0 0.0 25.6
2016-Feb-03 08:17N 23°33' W 075°47'0 0.0 25.6
2016-Feb-03 02:32N 23°33' W 075°47'0 0.3 25.7
2016-Feb-03 01:50N 23°33' W 075°47'0 0.3 25.7
2016-Feb-03 00:55N 23°33' W 075°47'0 2.8 25.7
2016-Feb-03 00:51N 23°33' W 075°47'0 0.0 25.7
2016-Feb-02 23:10N 23°33' W 075°47'0 0.0 25.8
2016-Feb-02 23:09N 23°33' W 075°47'0 0.4 25.8
2016-Feb-02 22:12N 23°33' W 075°48'0 4.8 25.8
2016-Feb-02 22:06N 23°33' W 075°47'0 0.1 25.8
2016-Feb-02 19:52N 23°33' W 075°47'0 0.1 25.8
2016-Feb-02 15:23N 23°33' W 075°47'0 0.2 25.6
2016-Feb-02 14:37N 23°33' W 075°47'0 0.5 25.6
2016-Feb-02 13:41N 23°34' W 075°47'0 0.1 25.5
2016-Feb-02 12:35N 23°34' W 075°47'0 0.7 25.5
2016-Feb-02 11:57N 23°33' W 075°47'0 1.6 25.5
2016-Feb-02 11:51N 23°33' W 075°47'0 0.7 25.5
2016-Feb-02 11:44N 23°33' W 075°47'0 0.0 25.5
2016-Feb-02 10:54N 23°33' W 075°47'0 0.1 25.5
2016-Feb-02 08:35N 23°33' W 075°47'0 1.6 25.6
2016-Feb-02 08:32N 23°33' W 075°47'0 0.0 25.6
2016-Feb-02 02:54N 23°33' W 075°47'0 0.3 25.6
2016-Feb-02 02:09N 23°33' W 075°47'1 0.1 25.6
2016-Feb-01 20:52N 23°33' W 075°47'0 0.0 25.8
2016-Feb-01 15:44N 23°33' W 075°47'0 0.4 25.6
2016-Feb-01 14:57N 23°33' W 075°47'0 1.1 25.6
2016-Feb-01 14:54N 23°33' W 075°47'1 0.6 25.6
2016-Feb-01 14:02N 23°33' W 075°47'0 0.0 25.6
2016-Feb-01 12:03N 23°33' W 075°47'0 1.7 25.5
2016-Feb-01 11:55N 23°33' W 075°47'0 0.0 25.5
2016-Feb-01 11:18N 23°33' W 075°47'0 0.0 25.5
2016-Feb-01 10:49N 23°33' W 075°47'0 0.4 25.6
2016-Feb-01 10:24N 23°33' W 075°47'0 0.9 25.6
2016-Feb-01 10:13N 23°33' W 075°47'0 0.0 25.6
2016-Feb-01 09:37N 23°33' W 075°47'0 0.2 25.6
2016-Feb-01 08:42N 23°33' W 075°47'0 1.5 25.6
2016-Feb-01 08:37N 23°33' W 075°47'0 0.0 25.6
2016-Feb-01 07:01N 23°33' W 075°47'0 0.1 25.6
2016-Feb-01 03:17N 23°33' W 075°47'0 2.4 25.6
2016-Feb-01 03:14N 23°33' W 075°47'0 0.6 25.6
2016-Feb-01 02:31N 23°33' W 075°47'0 0.4 25.6
2016-Feb-01 01:38N 23°33' W 075°46'1 5.3 25.6
2016-Feb-01 01:32N 23°33' W 075°46'1 0.3 25.6
2016-Jan-31 23:32N 23°33' W 075°45'0 0.4 25.7
2016-Jan-31 22:54N 23°33' W 075°45'0 0.3 25.7
2016-Jan-31 21:51N 23°32' W 075°45'0 5.0 25.7
2016-Jan-31 21:47N 23°32' W 075°45'0 0.3 25.7
2016-Jan-31 20:15N 23°32' W 075°45'1 0.3 25.8
2016-Jan-31 18:34N 23°32' W 075°44'1 0.3 25.7
2016-Jan-31 16:04N 23°32' W 075°44'0 0.7 25.6
2016-Jan-31 15:19N 23°31' W 075°43'0 2.7 25.6
2016-Jan-31 15:15N 23°31' W 075°43'0 0.0
2016-Jan-31 14:19N 23°31' W 075°43'0 0.3 25.6
2016-Jan-31 13:30N 23°31' W 075°43'0 0.0 25.6
2016-Jan-31 12:16N 23°31' W 075°43'0 1.0 25.6
2016-Jan-31 12:11N 23°31' W 075°43'0 3.1 25.6
2016-Jan-31 12:07N 23°31' W 075°43'0 0.0 25.6
2016-Jan-31 11:44N 23°31' W 075°43'0 0.6 25.6
2016-Jan-31 11:17N 23°31' W 075°43'0 0.1 25.6
2016-Jan-31 10:35N 23°31' W 075°43'0 0.0 25.6
2016-Jan-31 10:32N 23°31' W 075°43'0 0.2 25.6
2016-Jan-31 10:10N 23°31' W 075°43'1 0.4
2016-Jan-31 08:49N 23°31' W 075°42'0 0.0 25.6
2016-Jan-31 07:17N 23°31' W 075°42'0 0.0 25.6
2016-Jan-31 07:11N 23°31' W 075°42'0 0.1 25.5
2016-Jan-31 03:35N 23°31' W 075°42'0 0.3 25.5
2016-Jan-31 02:53N 23°31' W 075°42'0 0.0 25.5
2016-Jan-31 01:59N 23°31' W 075°42'0 0.7 25.5
2016-Jan-31 01:54N 23°31' W 075°42'0 0.0 25.5
2016-Jan-31 01:07N 23°31' W 075°42'0 0.0
2016-Jan-31 00:12N 23°31' W 075°42'0 0.7 25.6
2016-Jan-30 23:45N 23°31' W 075°42'0 1.2 25.6
2016-Jan-30 23:21N 23°31' W 075°42'0 0.0 25.6
2016-Jan-30 22:03N 23°31' W 075°42'0 2.1 25.6
2016-Jan-30 21:58N 23°31' W 075°42'0 0.2 25.6
2016-Jan-30 20:22N 23°31' W 075°41'0 0.0 25.6
2016-Jan-30 13:57N 23°31' W 075°42'0 3.4 25.5
2016-Jan-30 13:51N 23°31' W 075°42'0 0.0 25.5
2016-Jan-30 12:08N 23°31' W 075°42'0 0.0 25.5
2016-Jan-30 03:55N 23°31' W 075°42'2 0.4 25.4
2016-Jan-29 22:10N 23°32' W 075°44'0 0.0 25.5
2016-Jan-29 22:04N 23°32' W 075°44'3 0.9 25.5
2016-Jan-29 18:57N 23°34' W 075°47'0 0.0 25.5
2016-Jan-29 15:54N 23°34' W 075°47'   25.5
Track history (hours):
 
Tides and Currents Weather Stations Pressure Air Temp Water Temp Dewpoint Dewpoint Depression Visibility Wind Speed Wind Dir Waves Ship Positions

Drifting buoy 41676

Last reported at 2016-Feb-08 15:52 UTC. Time now 2016-Sep-30 18:36 UTC.
Position N 23°33' W 075°47'.
Warning: this ship's position is months out of date.

Water temperature 25.3 ° C

Date/timePositionNaut miles runAvg speedWind from/ knotsBaromVisibWave heightAir tempDewpointWater temp
2016-Feb-08 15:52N 23°33' W 075°47'0 1.1 25.3
2016-Feb-08 15:49N 23°33' W 075°47'0 0.1 25.3
2016-Feb-08 14:54N 23°33' W 075°47'0 0.2 25.3
2016-Feb-08 14:04N 23°33' W 075°47'0 0.1 25.3
2016-Feb-08 12:20N 23°33' W 075°47'0 5.0 25.4
2016-Feb-08 12:17N 23°33' W 075°47'0 2.0 25.4
2016-Feb-08 12:07N 23°33' W 075°47'0 0.9 25.4
2016-Feb-08 11:46N 23°33' W 075°47'0 0.5 25.4
2016-Feb-08 10:43N 23°33' W 075°47'0 1.2 25.4
2016-Feb-08 10:34N 23°33' W 075°47'0 0.1 25.4
2016-Feb-08 09:07N 23°33' W 075°47'0 0.0 25.4
2016-Feb-08 09:04N 23°33' W 075°47'0 1.6 25.4
2016-Feb-08 09:01N 23°33' W 075°47'0 0.2 25.4
2016-Feb-08 07:23N 23°33' W 075°48'0 0.1 25.4
2016-Feb-08 03:18N 23°33' W 075°47'0 0.0 25.4
2016-Feb-08 02:33N 23°33' W 075°47'0 1.1 25.4
2016-Feb-08 02:27N 23°33' W 075°47'0 0.0 25.5
2016-Feb-08 01:45N 23°33' W 075°47'0 0.1 25.5
2016-Feb-08 00:58N 23°33' W 075°47'0 0.2 25.6
2016-Feb-07 23:48N 23°33' W 075°48'0 0.0 25.6
2016-Feb-07 22:10N 23°33' W 075°48'0 0.2 25.6
2016-Feb-07 20:34N 23°33' W 075°47'0 0.2 25.7
2016-Feb-07 18:55N 23°33' W 075°48'1 0.3 25.7
2016-Feb-07 16:09N 23°33' W 075°47'1 0.9 25.7
2016-Feb-07 15:21N 23°33' W 075°47'0 0.0 25.8
2016-Feb-07 14:33N 23°33' W 075°47'0 0.6 25.8
2016-Feb-07 14:27N 23°33' W 075°47'0 0.1 25.8
2016-Feb-07 12:35N 23°33' W 075°47'0 0.0 25.8
2016-Feb-07 12:30N 23°33' W 075°47'0 0.0 25.8
2016-Feb-07 12:11N 23°33' W 075°47'0 0.0 25.9
2016-Feb-07 11:02N 23°33' W 075°47'0 0.0 25.9
2016-Feb-07 10:52N 23°33' W 075°47'0 0.2 25.9
2016-Feb-07 10:31N 23°33' W 075°47'0 0.2 25.9
2016-Feb-07 09:15N 23°34' W 075°47'0 1.1 26.0
2016-Feb-07 09:12N 23°34' W 075°47'0 0.2 26.0
2016-Feb-07 07:36N 23°33' W 075°47'0 0.0 26.0
2016-Feb-07 02:55N 23°33' W 075°47'0 1.0 26.1
2016-Feb-07 02:50N 23°33' W 075°47'0 0.2 26.1
2016-Feb-07 02:07N 23°33' W 075°47'0 0.1 26.1
2016-Feb-07 01:14N 23°33' W 075°47'0 4.8 26.1
2016-Feb-07 01:08N 23°33' W 075°47'0 0.0 26.1
2016-Feb-07 00:01N 23°33' W 075°47'0 0.2 26.1
2016-Feb-06 22:24N 23°33' W 075°48'0 1.2
2016-Feb-06 22:20N 23°33' W 075°48'0 0.4 26.2
2016-Feb-06 22:08N 23°33' W 075°48'0 8.4 26.2
2016-Feb-06 22:05N 23°33' W 075°47'0 0.0 26.2
2016-Feb-06 20:42N 23°33' W 075°47'0 0.2 26.2
2016-Feb-06 19:06N 23°33' W 075°48'0 0.1 26.1
2016-Feb-06 15:40N 23°33' W 075°47'0 0.3 25.6
2016-Feb-06 14:48N 23°33' W 075°47'0 0.0
2016-Feb-06 13:57N 23°33' W 075°47'0 0.3 25.6
2016-Feb-06 12:34N 23°33' W 075°48'0 0.4 25.6
2016-Feb-06 11:31N 23°33' W 075°47'0 1.0 25.6
2016-Feb-06 11:05N 23°33' W 075°47'0 2.4 25.6
2016-Feb-06 10:58N 23°33' W 075°47'0 0.0 25.6
2016-Feb-06 10:56N 23°33' W 075°47'1 0.4 25.6
2016-Feb-06 09:26N 23°33' W 075°48'0 9.1 25.6
2016-Feb-06 09:23N 23°33' W 075°47'0 0.1 25.6
2016-Feb-06 07:44N 23°33' W 075°48'0 0.1 25.6
2016-Feb-06 03:15N 23°33' W 075°47'0 3.0 25.7
2016-Feb-06 03:08N 23°33' W 075°48'0 0.0 25.7
2016-Feb-06 02:27N 23°33' W 075°48'0 0.3 25.7
2016-Feb-06 01:35N 23°33' W 075°47'0 1.6 25.7
2016-Feb-06 01:29N 23°33' W 075°47'1 1.1 25.7
2016-Feb-06 00:12N 23°34' W 075°46'0 0.0 25.7
2016-Feb-05 22:33N 23°34' W 075°46'127.4 25.8
2016-Feb-05 22:30N 23°33' W 075°47'0 0.0 25.8
2016-Feb-05 20:55N 23°33' W 075°47'0 0.0 25.8
2016-Feb-05 20:51N 23°33' W 075°47'0 0.2 25.8
2016-Feb-05 19:15N 23°34' W 075°47'0 0.1 25.8
2016-Feb-05 16:01N 23°33' W 075°47'0 0.2 25.6
2016-Feb-05 15:13N 23°33' W 075°47'0 0.0 25.6
2016-Feb-05 09:35N 23°33' W 075°47'0 0.0 25.5
2016-Feb-05 09:29N 23°33' W 075°47'0 0.0 25.5
2016-Feb-05 08:00N 23°33' W 075°47'0 3.5 25.5
2016-Feb-05 07:54N 23°33' W 075°48'0 0.0 25.5
2016-Feb-05 03:31N 23°33' W 075°47'0 0.2 25.5
2016-Feb-05 02:48N 23°33' W 075°47'0 0.0 25.5
2016-Feb-05 01:57N 23°33' W 075°47'0 0.0 25.5
2016-Feb-05 01:51N 23°33' W 075°47'0 0.4 25.5
2016-Feb-05 01:04N 23°33' W 075°48'0 0.2 25.5
2016-Feb-04 22:56N 23°33' W 075°47'0 1.0 25.6
2016-Feb-04 22:46N 23°33' W 075°47'1 0.4 25.6
2016-Feb-04 21:20N 23°33' W 075°48'0 0.7 25.6
2016-Feb-04 21:05N 23°33' W 075°47'0 0.0 25.6
2016-Feb-04 21:04N 23°33' W 075°47'0 0.0 25.6
2016-Feb-04 19:28N 23°33' W 075°47'0 0.0 25.6
2016-Feb-04 16:18N 23°33' W 075°47'0 0.0 25.4
2016-Feb-04 15:36N 23°33' W 075°47'0 1.9 25.4
2016-Feb-04 15:32N 23°33' W 075°47'0 0.6 25.4
2016-Feb-04 14:42N 23°33' W 075°48'0 0.2 25.4
2016-Feb-04 13:48N 23°33' W 075°47'0 0.0 25.3
2016-Feb-04 12:31N 23°33' W 075°47'0 0.0 25.3
2016-Feb-04 11:49N 23°33' W 075°47'0 0.0
2016-Feb-04 08:06N 23°33' W 075°47'0 0.1
2016-Feb-04 03:53N 23°33' W 075°48'0 0.1 25.6
2016-Feb-03 22:59N 23°33' W 075°47'0 1.2
2016-Feb-03 22:56N 23°33' W 075°47'0 0.0 25.6
2016-Feb-03 18:00N 23°33' W 075°47'0 1.3 25.6
2016-Feb-03 17:54N 23°33' W 075°47'0 0.0 25.6
2016-Feb-03 15:54N 23°33' W 075°47'0 0.2 25.6
2016-Feb-03 15:03N 23°33' W 075°47'0 0.1 25.5
2016-Feb-03 12:11N 23°33' W 075°47'0 0.4 25.5
2016-Feb-03 11:37N 23°33' W 075°47'0 2.0 25.5
2016-Feb-03 11:32N 23°33' W 075°47'0 0.8 25.5
2016-Feb-03 11:26N 23°33' W 075°47'0 0.1 25.5
2016-Feb-03 09:56N 23°33' W 075°47'0 0.0 25.6
2016-Feb-03 08:17N 23°33' W 075°47'0 0.0 25.6
2016-Feb-03 02:32N 23°33' W 075°47'0 0.3 25.7
2016-Feb-03 01:50N 23°33' W 075°47'0 0.3 25.7
2016-Feb-03 00:55N 23°33' W 075°47'0 2.8 25.7
2016-Feb-03 00:51N 23°33' W 075°47'0 0.0 25.7
2016-Feb-02 23:10N 23°33' W 075°47'0 0.0 25.8
2016-Feb-02 23:09N 23°33' W 075°47'0 0.4 25.8
2016-Feb-02 22:12N 23°33' W 075°48'0 4.8 25.8
2016-Feb-02 22:06N 23°33' W 075°47'0 0.1 25.8
2016-Feb-02 19:52N 23°33' W 075°47'0 0.1 25.8
2016-Feb-02 15:23N 23°33' W 075°47'0 0.2 25.6
2016-Feb-02 14:37N 23°33' W 075°47'0 0.5 25.6
2016-Feb-02 13:41N 23°34' W 075°47'0 0.1 25.5
2016-Feb-02 12:35N 23°34' W 075°47'0 0.7 25.5
2016-Feb-02 11:57N 23°33' W 075°47'0 1.6 25.5
2016-Feb-02 11:51N 23°33' W 075°47'0 0.7 25.5
2016-Feb-02 11:44N 23°33' W 075°47'0 0.0 25.5
2016-Feb-02 10:54N 23°33' W 075°47'0 0.1 25.5
2016-Feb-02 08:35N 23°33' W 075°47'0 1.6 25.6
2016-Feb-02 08:32N 23°33' W 075°47'0 0.0 25.6
2016-Feb-02 02:54N 23°33' W 075°47'0 0.3 25.6
2016-Feb-02 02:09N 23°33' W 075°47'1 0.1 25.6
2016-Feb-01 20:52N 23°33' W 075°47'0 0.0 25.8
2016-Feb-01 15:44N 23°33' W 075°47'0 0.4 25.6
2016-Feb-01 14:57N 23°33' W 075°47'0 1.1 25.6
2016-Feb-01 14:54N 23°33' W 075°47'1 0.6 25.6
2016-Feb-01 14:02N 23°33' W 075°47'0 0.0 25.6
2016-Feb-01 12:03N 23°33' W 075°47'0 1.7 25.5
2016-Feb-01 11:55N 23°33' W 075°47'0 0.0 25.5
2016-Feb-01 11:18N 23°33' W 075°47'0 0.0 25.5
2016-Feb-01 10:49N 23°33' W 075°47'0 0.4 25.6
2016-Feb-01 10:24N 23°33' W 075°47'0 0.9 25.6
2016-Feb-01 10:13N 23°33' W 075°47'0 0.0 25.6
2016-Feb-01 09:37N 23°33' W 075°47'0 0.2 25.6
2016-Feb-01 08:42N 23°33' W 075°47'0 1.5 25.6
2016-Feb-01 08:37N 23°33' W 075°47'0 0.0 25.6
2016-Feb-01 07:01N 23°33' W 075°47'0 0.1 25.6
2016-Feb-01 03:17N 23°33' W 075°47'0 2.4 25.6
2016-Feb-01 03:14N 23°33' W 075°47'0 0.6 25.6
2016-Feb-01 02:31N 23°33' W 075°47'0 0.4 25.6
2016-Feb-01 01:38N 23°33' W 075°46'1 5.3 25.6
2016-Feb-01 01:32N 23°33' W 075°46'1 0.3 25.6
2016-Jan-31 23:32N 23°33' W 075°45'0 0.4 25.7
2016-Jan-31 22:54N 23°33' W 075°45'0 0.3 25.7
2016-Jan-31 21:51N 23°32' W 075°45'0 5.0 25.7
2016-Jan-31 21:47N 23°32' W 075°45'0 0.3 25.7
2016-Jan-31 20:15N 23°32' W 075°45'1 0.3 25.8
2016-Jan-31 18:34N 23°32' W 075°44'1 0.3 25.7
2016-Jan-31 16:04N 23°32' W 075°44'0 0.7 25.6
2016-Jan-31 15:19N 23°31' W 075°43'0 2.7 25.6
2016-Jan-31 15:15N 23°31' W 075°43'0 0.0
2016-Jan-31 14:19N 23°31' W 075°43'0 0.3 25.6
2016-Jan-31 13:30N 23°31' W 075°43'0 0.0 25.6
2016-Jan-31 12:16N 23°31' W 075°43'0 1.0 25.6
2016-Jan-31 12:11N 23°31' W 075°43'0 3.1 25.6
2016-Jan-31 12:07N 23°31' W 075°43'0 0.0 25.6
2016-Jan-31 11:44N 23°31' W 075°43'0 0.6 25.6
2016-Jan-31 11:17N 23°31' W 075°43'0 0.1 25.6
2016-Jan-31 10:35N 23°31' W 075°43'0 0.0 25.6
2016-Jan-31 10:32N 23°31' W 075°43'0 0.2 25.6
2016-Jan-31 10:10N 23°31' W 075°43'1 0.4
2016-Jan-31 08:49N 23°31' W 075°42'0 0.0 25.6
2016-Jan-31 07:17N 23°31' W 075°42'0 0.0 25.6
2016-Jan-31 07:11N 23°31' W 075°42'0 0.1 25.5
2016-Jan-31 03:35N 23°31' W 075°42'0 0.3 25.5
2016-Jan-31 02:53N 23°31' W 075°42'0 0.0 25.5
2016-Jan-31 01:59N 23°31' W 075°42'0 0.7 25.5
2016-Jan-31 01:54N 23°31' W 075°42'0 0.0 25.5
2016-Jan-31 01:07N 23°31' W 075°42'0 0.0
2016-Jan-31 00:12N 23°31' W 075°42'0 0.7 25.6
2016-Jan-30 23:45N 23°31' W 075°42'0 1.2 25.6
2016-Jan-30 23:21N 23°31' W 075°42'0 0.0 25.6
2016-Jan-30 22:03N 23°31' W 075°42'0 2.1 25.6
2016-Jan-30 21:58N 23°31' W 075°42'0 0.2 25.6
2016-Jan-30 20:22N 23°31' W 075°41'0 0.0 25.6
2016-Jan-30 13:57N 23°31' W 075°42'0 3.4 25.5
2016-Jan-30 13:51N 23°31' W 075°42'0 0.0 25.5
2016-Jan-30 12:08N 23°31' W 075°42'0 0.0 25.5
2016-Jan-30 03:55N 23°31' W 075°42'2 0.4 25.4
2016-Jan-29 22:10N 23°32' W 075°44'0 0.0 25.5
2016-Jan-29 22:04N 23°32' W 075°44'3 0.9 25.5
2016-Jan-29 18:57N 23°34' W 075°47'0 0.0 25.5
2016-Jan-29 15:54N 23°34' W 075°47'   25.5

Dump ship's entire track history